sensor_id;sensor_type;location;lat;lon;timestamp;P1;durP1;ratioP1;P2;durP2;ratioP2
39982;SDS011;25670;44.782;10.356;2024-02-16T00:01:39;69.78;;;36.10;;
39982;SDS011;25670;44.782;10.356;2024-02-16T00:04:05;69.35;;;37.38;;
39982;SDS011;25670;44.782;10.356;2024-02-16T00:06:33;63.05;;;36.33;;
39982;SDS011;25670;44.782;10.356;2024-02-16T00:09:00;64.25;;;35.20;;
39982;SDS011;25670;44.782;10.356;2024-02-16T00:11:27;65.47;;;34.70;;
39982;SDS011;25670;44.782;10.356;2024-02-16T00:13:54;68.43;;;35.58;;
39982;SDS011;25670;44.782;10.356;2024-02-16T00:16:20;63.85;;;35.15;;
39982;SDS011;25670;44.782;10.356;2024-02-16T00:18:47;68.25;;;37.00;;
39982;SDS011;25670;44.782;10.356;2024-02-16T00:21:13;70.10;;;36.85;;
39982;SDS011;25670;44.782;10.356;2024-02-16T00:23:42;68.25;;;36.70;;
39982;SDS011;25670;44.782;10.356;2024-02-16T00:26:09;68.57;;;36.78;;
39982;SDS011;25670;44.782;10.356;2024-02-16T00:28:36;66.55;;;35.17;;
39982;SDS011;25670;44.782;10.356;2024-02-16T00:31:03;70.75;;;36.33;;
39982;SDS011;25670;44.782;10.356;2024-02-16T00:33:31;65.00;;;37.35;;
39982;SDS011;25670;44.782;10.356;2024-02-16T00:35:57;76.22;;;38.42;;
39982;SDS011;25670;44.782;10.356;2024-02-16T00:38:24;71.22;;;36.38;;
39982;SDS011;25670;44.782;10.356;2024-02-16T00:40:50;64.80;;;35.75;;
39982;SDS011;25670;44.782;10.356;2024-02-16T00:43:19;71.07;;;38.03;;
39982;SDS011;25670;44.782;10.356;2024-02-16T00:45:51;76.18;;;37.67;;
39982;SDS011;25670;44.782;10.356;2024-02-16T00:48:18;69.88;;;37.05;;
39982;SDS011;25670;44.782;10.356;2024-02-16T00:50:44;75.70;;;38.75;;
39982;SDS011;25670;44.782;10.356;2024-02-16T00:53:11;74.22;;;37.42;;
39982;SDS011;25670;44.782;10.356;2024-02-16T00:55:37;76.45;;;39.47;;
39982;SDS011;25670;44.782;10.356;2024-02-16T00:58:07;78.13;;;40.58;;
39982;SDS011;25670;44.782;10.356;2024-02-16T01:00:33;75.75;;;38.85;;
39982;SDS011;25670;44.782;10.356;2024-02-16T01:03:01;74.78;;;39.33;;
39982;SDS011;25670;44.782;10.356;2024-02-16T01:05:27;79.68;;;39.00;;
39982;SDS011;25670;44.782;10.356;2024-02-16T01:07:54;83.45;;;38.33;;
39982;SDS011;25670;44.782;10.356;2024-02-16T01:10:20;72.05;;;38.10;;
39982;SDS011;25670;44.782;10.356;2024-02-16T01:12:48;73.88;;;38.00;;
39982;SDS011;25670;44.782;10.356;2024-02-16T01:15:15;74.18;;;39.25;;
39982;SDS011;25670;44.782;10.356;2024-02-16T01:17:41;75.75;;;40.28;;
39982;SDS011;25670;44.782;10.356;2024-02-16T01:20:08;71.20;;;37.70;;
39982;SDS011;25670;44.782;10.356;2024-02-16T01:22:38;63.58;;;35.75;;
39982;SDS011;25670;44.782;10.356;2024-02-16T01:25:06;69.72;;;36.40;;
39982;SDS011;25670;44.782;10.356;2024-02-16T01:27:34;76.13;;;37.40;;
39982;SDS011;25670;44.782;10.356;2024-02-16T01:30:01;63.67;;;35.67;;
39982;SDS011;25670;44.782;10.356;2024-02-16T01:32:28;66.57;;;36.25;;
39982;SDS011;25670;44.782;10.356;2024-02-16T01:34:55;72.03;;;36.00;;
39982;SDS011;25670;44.782;10.356;2024-02-16T01:37:21;69.30;;;36.67;;
39982;SDS011;25670;44.782;10.356;2024-02-16T01:39:48;64.68;;;35.75;;
39982;SDS011;25670;44.782;10.356;2024-02-16T01:42:14;72.60;;;36.00;;
39982;SDS011;25670;44.782;10.356;2024-02-16T01:44:41;76.22;;;36.95;;
39982;SDS011;25670;44.782;10.356;2024-02-16T01:47:08;69.53;;;37.83;;
39982;SDS011;25670;44.782;10.356;2024-02-16T01:49:34;72.88;;;37.03;;
39982;SDS011;25670;44.782;10.356;2024-02-16T01:52:01;71.47;;;35.38;;
39982;SDS011;25670;44.782;10.356;2024-02-16T01:54:28;68.22;;;34.53;;
39982;SDS011;25670;44.782;10.356;2024-02-16T01:56:55;59.67;;;33.22;;
39982;SDS011;25670;44.782;10.356;2024-02-16T01:59:22;70.47;;;32.65;;
39982;SDS011;25670;44.782;10.356;2024-02-16T02:01:49;63.95;;;35.10;;
39982;SDS011;25670;44.782;10.356;2024-02-16T02:04:16;66.88;;;33.60;;
39982;SDS011;25670;44.782;10.356;2024-02-16T02:06:43;66.25;;;35.22;;
39982;SDS011;25670;44.782;10.356;2024-02-16T02:09:09;61.22;;;32.95;;
39982;SDS011;25670;44.782;10.356;2024-02-16T02:11:36;68.75;;;34.75;;
39982;SDS011;25670;44.782;10.356;2024-02-16T02:14:03;66.47;;;35.55;;
39982;SDS011;25670;44.782;10.356;2024-02-16T02:16:29;75.68;;;37.22;;
39982;SDS011;25670;44.782;10.356;2024-02-16T02:18:56;68.80;;;35.78;;
39982;SDS011;25670;44.782;10.356;2024-02-16T02:21:22;76.93;;;39.13;;
39982;SDS011;25670;44.782;10.356;2024-02-16T02:23:49;77.38;;;37.38;;
39982;SDS011;25670;44.782;10.356;2024-02-16T02:26:15;75.15;;;40.25;;
39982;SDS011;25670;44.782;10.356;2024-02-16T02:28:45;73.55;;;37.58;;
39982;SDS011;25670;44.782;10.356;2024-02-16T02:31:11;65.63;;;36.05;;
39982;SDS011;25670;44.782;10.356;2024-02-16T02:33:38;73.72;;;37.15;;
39982;SDS011;25670;44.782;10.356;2024-02-16T02:36:05;69.72;;;36.50;;
39982;SDS011;25670;44.782;10.356;2024-02-16T02:38:31;79.40;;;38.08;;
39982;SDS011;25670;44.782;10.356;2024-02-16T02:40:58;71.47;;;36.50;;
39982;SDS011;25670;44.782;10.356;2024-02-16T02:43:25;66.90;;;36.33;;
39982;SDS011;25670;44.782;10.356;2024-02-16T02:45:52;73.15;;;36.47;;
39982;SDS011;25670;44.782;10.356;2024-02-16T02:48:18;74.50;;;38.03;;
39982;SDS011;25670;44.782;10.356;2024-02-16T02:50:44;73.53;;;38.05;;
39982;SDS011;25670;44.782;10.356;2024-02-16T02:53:11;84.88;;;38.58;;
39982;SDS011;25670;44.782;10.356;2024-02-16T02:55:37;69.88;;;37.22;;
39982;SDS011;25670;44.782;10.356;2024-02-16T02:58:04;70.43;;;37.28;;
39982;SDS011;25670;44.782;10.356;2024-02-16T03:00:30;69.28;;;37.95;;
39982;SDS011;25670;44.782;10.356;2024-02-16T03:02:56;73.25;;;39.25;;
39982;SDS011;25670;44.782;10.356;2024-02-16T03:05:22;77.20;;;38.47;;
39982;SDS011;25670;44.782;10.356;2024-02-16T03:07:49;74.95;;;38.55;;
39982;SDS011;25670;44.782;10.356;2024-02-16T03:10:15;72.07;;;37.08;;
39982;SDS011;25670;44.782;10.356;2024-02-16T03:12:46;70.65;;;37.97;;
39982;SDS011;25670;44.782;10.356;2024-02-16T03:15:16;73.68;;;39.20;;
39982;SDS011;25670;44.782;10.356;2024-02-16T03:17:43;76.55;;;39.67;;
39982;SDS011;25670;44.782;10.356;2024-02-16T03:20:13;66.65;;;38.20;;
39982;SDS011;25670;44.782;10.356;2024-02-16T03:22:40;75.22;;;36.83;;
39982;SDS011;25670;44.782;10.356;2024-02-16T03:25:06;74.07;;;36.28;;
39982;SDS011;25670;44.782;10.356;2024-02-16T03:27:33;70.55;;;34.58;;
39982;SDS011;25670;44.782;10.356;2024-02-16T03:29:59;70.65;;;34.40;;
39982;SDS011;25670;44.782;10.356;2024-02-16T03:32:27;70.47;;;34.22;;
39982;SDS011;25670;44.782;10.356;2024-02-16T03:34:53;61.85;;;31.80;;
39982;SDS011;25670;44.782;10.356;2024-02-16T03:37:24;65.82;;;32.65;;
39982;SDS011;25670;44.782;10.356;2024-02-16T03:39:50;72.78;;;33.08;;
39982;SDS011;25670;44.782;10.356;2024-02-16T03:42:18;57.78;;;31.88;;
39982;SDS011;25670;44.782;10.356;2024-02-16T03:44:45;62.33;;;32.70;;
39982;SDS011;25670;44.782;10.356;2024-02-16T03:47:11;54.65;;;30.70;;
39982;SDS011;25670;44.782;10.356;2024-02-16T03:49:38;58.47;;;30.73;;
39982;SDS011;25670;44.782;10.356;2024-02-16T03:52:05;62.72;;;31.52;;
39982;SDS011;25670;44.782;10.356;2024-02-16T03:54:32;72.53;;;31.88;;
39982;SDS011;25670;44.782;10.356;2024-02-16T03:56:58;57.75;;;30.85;;
39982;SDS011;25670;44.782;10.356;2024-02-16T03:59:25;58.13;;;31.02;;
39982;SDS011;25670;44.782;10.356;2024-02-16T04:01:51;58.25;;;29.65;;
39982;SDS011;25670;44.782;10.356;2024-02-16T04:04:18;64.82;;;32.85;;
39982;SDS011;25670;44.782;10.356;2024-02-16T04:06:45;65.25;;;33.75;;
39982;SDS011;25670;44.782;10.356;2024-02-16T04:09:12;63.72;;;34.88;;
39982;SDS011;25670;44.782;10.356;2024-02-16T04:11:38;73.15;;;37.95;;
39982;SDS011;25670;44.782;10.356;2024-02-16T04:14:05;73.90;;;37.78;;
39982;SDS011;25670;44.782;10.356;2024-02-16T04:16:31;68.63;;;34.97;;
39982;SDS011;25670;44.782;10.356;2024-02-16T04:18:57;82.82;;;39.25;;
39982;SDS011;25670;44.782;10.356;2024-02-16T04:21:24;77.47;;;39.63;;
39982;SDS011;25670;44.782;10.356;2024-02-16T04:23:51;75.97;;;38.13;;
39982;SDS011;25670;44.782;10.356;2024-02-16T04:26:17;73.40;;;36.28;;
39982;SDS011;25670;44.782;10.356;2024-02-16T04:28:44;74.25;;;39.58;;
39982;SDS011;25670;44.782;10.356;2024-02-16T04:31:10;67.15;;;36.38;;
39982;SDS011;25670;44.782;10.356;2024-02-16T04:33:36;77.32;;;39.72;;
39982;SDS011;25670;44.782;10.356;2024-02-16T04:36:05;84.18;;;39.35;;
39982;SDS011;25670;44.782;10.356;2024-02-16T04:38:32;79.13;;;39.67;;
39982;SDS011;25670;44.782;10.356;2024-02-16T04:41:04;83.05;;;40.80;;
39982;SDS011;25670;44.782;10.356;2024-02-16T04:43:32;81.30;;;42.00;;
39982;SDS011;25670;44.782;10.356;2024-02-16T04:45:58;80.15;;;40.72;;
39982;SDS011;25670;44.782;10.356;2024-02-16T04:48:27;85.65;;;43.50;;
39982;SDS011;25670;44.782;10.356;2024-02-16T04:50:54;83.75;;;41.30;;
39982;SDS011;25670;44.782;10.356;2024-02-16T04:53:21;83.03;;;43.47;;
39982;SDS011;25670;44.782;10.356;2024-02-16T04:55:48;91.00;;;46.40;;
39982;SDS011;25670;44.782;10.356;2024-02-16T04:58:14;87.60;;;43.30;;
39982;SDS011;25670;44.782;10.356;2024-02-16T05:00:41;87.82;;;45.00;;
39982;SDS011;25670;44.782;10.356;2024-02-16T05:03:10;89.97;;;45.45;;
39982;SDS011;25670;44.782;10.356;2024-02-16T05:05:36;95.68;;;46.35;;
39982;SDS011;25670;44.782;10.356;2024-02-16T05:08:02;94.32;;;48.45;;
39982;SDS011;25670;44.782;10.356;2024-02-16T05:10:29;93.03;;;47.67;;
39982;SDS011;25670;44.782;10.356;2024-02-16T05:12:58;91.72;;;47.60;;
39982;SDS011;25670;44.782;10.356;2024-02-16T05:15:25;93.82;;;48.38;;
39982;SDS011;25670;44.782;10.356;2024-02-16T05:17:51;103.22;;;46.90;;
39982;SDS011;25670;44.782;10.356;2024-02-16T05:20:18;85.97;;;45.28;;
39982;SDS011;25670;44.782;10.356;2024-02-16T05:22:45;88.65;;;45.85;;
39982;SDS011;25670;44.782;10.356;2024-02-16T05:25:13;86.70;;;43.30;;
39982;SDS011;25670;44.782;10.356;2024-02-16T05:27:39;86.85;;;43.25;;
39982;SDS011;25670;44.782;10.356;2024-02-16T05:32:40;79.38;;;40.08;;
39982;SDS011;25670;44.782;10.356;2024-02-16T05:35:07;77.38;;;41.38;;
39982;SDS011;25670;44.782;10.356;2024-02-16T05:37:37;88.70;;;44.63;;
39982;SDS011;25670;44.782;10.356;2024-02-16T05:40:08;85.28;;;42.83;;
39982;SDS011;25670;44.782;10.356;2024-02-16T05:42:55;97.28;;;45.75;;
39982;SDS011;25670;44.782;10.356;2024-02-16T05:45:24;86.43;;;44.35;;
39982;SDS011;25670;44.782;10.356;2024-02-16T05:47:54;91.07;;;43.72;;
39982;SDS011;25670;44.782;10.356;2024-02-16T05:50:20;85.47;;;44.30;;
39982;SDS011;25670;44.782;10.356;2024-02-16T05:52:47;90.72;;;42.88;;
39982;SDS011;25670;44.782;10.356;2024-02-16T05:55:15;80.63;;;40.25;;
39982;SDS011;25670;44.782;10.356;2024-02-16T05:57:44;79.80;;;41.40;;
39982;SDS011;25670;44.782;10.356;2024-02-16T06:00:11;83.28;;;41.58;;
39982;SDS011;25670;44.782;10.356;2024-02-16T06:02:39;85.63;;;41.88;;
39982;SDS011;25670;44.782;10.356;2024-02-16T06:05:05;82.55;;;39.40;;
39982;SDS011;25670;44.782;10.356;2024-02-16T06:07:32;74.90;;;38.42;;
39982;SDS011;25670;44.782;10.356;2024-02-16T06:10:03;74.82;;;39.70;;
39982;SDS011;25670;44.782;10.356;2024-02-16T06:12:33;74.60;;;38.78;;
39982;SDS011;25670;44.782;10.356;2024-02-16T06:15:01;74.38;;;37.60;;
39982;SDS011;25670;44.782;10.356;2024-02-16T06:17:28;67.53;;;35.97;;
39982;SDS011;25670;44.782;10.356;2024-02-16T06:19:55;69.72;;;37.25;;
39982;SDS011;25670;44.782;10.356;2024-02-16T06:22:21;71.80;;;36.75;;
39982;SDS011;25670;44.782;10.356;2024-02-16T06:24:48;74.03;;;35.50;;
39982;SDS011;25670;44.782;10.356;2024-02-16T06:27:14;68.88;;;33.63;;
39982;SDS011;25670;44.782;10.356;2024-02-16T06:29:41;66.32;;;33.55;;
39982;SDS011;25670;44.782;10.356;2024-02-16T06:32:08;63.85;;;33.17;;
39982;SDS011;25670;44.782;10.356;2024-02-16T06:34:37;62.15;;;31.73;;
39982;SDS011;25670;44.782;10.356;2024-02-16T06:37:03;57.15;;;31.65;;
39982;SDS011;25670;44.782;10.356;2024-02-16T06:39:30;58.42;;;29.83;;
39982;SDS011;25670;44.782;10.356;2024-02-16T06:41:56;65.53;;;31.30;;
39982;SDS011;25670;44.782;10.356;2024-02-16T06:44:23;58.55;;;30.48;;
39982;SDS011;25670;44.782;10.356;2024-02-16T06:46:49;55.28;;;29.30;;
39982;SDS011;25670;44.782;10.356;2024-02-16T06:49:16;59.08;;;30.63;;
39982;SDS011;25670;44.782;10.356;2024-02-16T06:51:46;59.33;;;29.33;;
39982;SDS011;25670;44.782;10.356;2024-02-16T06:54:15;48.22;;;27.83;;
39982;SDS011;25670;44.782;10.356;2024-02-16T06:56:42;51.83;;;27.05;;
39982;SDS011;25670;44.782;10.356;2024-02-16T06:59:08;59.38;;;27.55;;
39982;SDS011;25670;44.782;10.356;2024-02-16T07:01:35;49.70;;;26.02;;
39982;SDS011;25670;44.782;10.356;2024-02-16T07:04:01;46.47;;;25.98;;
39982;SDS011;25670;44.782;10.356;2024-02-16T07:06:28;50.88;;;26.58;;
39982;SDS011;25670;44.782;10.356;2024-02-16T07:08:55;42.10;;;25.05;;
39982;SDS011;25670;44.782;10.356;2024-02-16T07:11:21;47.00;;;24.95;;
39982;SDS011;25670;44.782;10.356;2024-02-16T07:13:47;47.85;;;24.65;;
39982;SDS011;25670;44.782;10.356;2024-02-16T07:16:14;41.03;;;23.40;;
39982;SDS011;25670;44.782;10.356;2024-02-16T07:18:40;35.75;;;22.75;;
39982;SDS011;25670;44.782;10.356;2024-02-16T07:21:07;43.35;;;24.23;;
39982;SDS011;25670;44.782;10.356;2024-02-16T07:23:35;39.08;;;23.58;;
39982;SDS011;25670;44.782;10.356;2024-02-16T07:26:01;40.10;;;22.48;;
39982;SDS011;25670;44.782;10.356;2024-02-16T07:28:28;51.53;;;23.65;;
39982;SDS011;25670;44.782;10.356;2024-02-16T07:30:54;35.42;;;21.23;;
39982;SDS011;25670;44.782;10.356;2024-02-16T07:33:21;46.28;;;22.83;;
39982;SDS011;25670;44.782;10.356;2024-02-16T07:35:50;43.10;;;22.42;;
39982;SDS011;25670;44.782;10.356;2024-02-16T07:38:17;38.10;;;22.42;;
39982;SDS011;25670;44.782;10.356;2024-02-16T07:40:44;32.88;;;22.23;;
39982;SDS011;25670;44.782;10.356;2024-02-16T07:43:11;41.30;;;22.40;;
39982;SDS011;25670;44.782;10.356;2024-02-16T07:45:38;39.17;;;22.40;;
39982;SDS011;25670;44.782;10.356;2024-02-16T07:48:05;42.60;;;22.40;;
39982;SDS011;25670;44.782;10.356;2024-02-16T07:50:33;39.63;;;21.75;;
39982;SDS011;25670;44.782;10.356;2024-02-16T07:52:59;37.50;;;22.00;;
39982;SDS011;25670;44.782;10.356;2024-02-16T07:55:26;36.78;;;21.63;;
39982;SDS011;25670;44.782;10.356;2024-02-16T07:57:52;42.97;;;23.02;;
39982;SDS011;25670;44.782;10.356;2024-02-16T08:00:19;44.33;;;24.52;;
39982;SDS011;25670;44.782;10.356;2024-02-16T08:02:45;48.50;;;26.10;;
39982;SDS011;25670;44.782;10.356;2024-02-16T08:05:12;43.75;;;25.13;;
39982;SDS011;25670;44.782;10.356;2024-02-16T08:07:39;42.83;;;25.30;;
39982;SDS011;25670;44.782;10.356;2024-02-16T08:10:09;47.78;;;26.67;;
39982;SDS011;25670;44.782;10.356;2024-02-16T08:12:36;47.88;;;27.95;;
39982;SDS011;25670;44.782;10.356;2024-02-16T08:15:02;45.40;;;29.30;;
39982;SDS011;25670;44.782;10.356;2024-02-16T08:17:29;66.30;;;35.53;;
39982;SDS011;25670;44.782;10.356;2024-02-16T08:19:57;63.70;;;36.17;;
39982;SDS011;25670;44.782;10.356;2024-02-16T08:22:23;66.72;;;36.95;;
39982;SDS011;25670;44.782;10.356;2024-02-16T08:24:49;73.35;;;38.78;;
39982;SDS011;25670;44.782;10.356;2024-02-16T08:27:16;67.72;;;36.63;;
39982;SDS011;25670;44.782;10.356;2024-02-16T08:29:42;67.72;;;35.83;;
39982;SDS011;25670;44.782;10.356;2024-02-16T08:32:09;62.53;;;37.58;;
39982;SDS011;25670;44.782;10.356;2024-02-16T08:34:36;72.18;;;38.17;;
39982;SDS011;25670;44.782;10.356;2024-02-16T08:37:03;64.90;;;37.22;;
39982;SDS011;25670;44.782;10.356;2024-02-16T08:39:30;76.15;;;39.45;;
39982;SDS011;25670;44.782;10.356;2024-02-16T08:41:57;72.43;;;40.63;;
39982;SDS011;25670;44.782;10.356;2024-02-16T08:44:25;72.60;;;40.78;;
39982;SDS011;25670;44.782;10.356;2024-02-16T08:46:52;77.25;;;38.92;;
39982;SDS011;25670;44.782;10.356;2024-02-16T08:49:20;70.90;;;39.75;;
39982;SDS011;25670;44.782;10.356;2024-02-16T08:51:47;67.70;;;38.58;;
39982;SDS011;25670;44.782;10.356;2024-02-16T08:54:13;67.00;;;38.80;;
39982;SDS011;25670;44.782;10.356;2024-02-16T08:56:40;71.80;;;40.53;;
39982;SDS011;25670;44.782;10.356;2024-02-16T08:59:06;68.72;;;39.47;;
39982;SDS011;25670;44.782;10.356;2024-02-16T09:01:33;71.28;;;41.20;;
39982;SDS011;25670;44.782;10.356;2024-02-16T09:04:01;80.13;;;44.00;;
39982;SDS011;25670;44.782;10.356;2024-02-16T09:06:28;78.53;;;44.42;;
39982;SDS011;25670;44.782;10.356;2024-02-16T09:08:55;81.40;;;46.50;;
39982;SDS011;25670;44.782;10.356;2024-02-16T09:11:22;88.80;;;47.35;;
39982;SDS011;25670;44.782;10.356;2024-02-16T09:13:49;82.20;;;45.05;;
39982;SDS011;25670;44.782;10.356;2024-02-16T09:16:16;86.45;;;44.42;;
39982;SDS011;25670;44.782;10.356;2024-02-16T09:18:42;74.18;;;43.08;;
39982;SDS011;25670;44.782;10.356;2024-02-16T09:21:09;72.60;;;42.35;;
39982;SDS011;25670;44.782;10.356;2024-02-16T09:23:36;73.57;;;43.15;;
39982;SDS011;25670;44.782;10.356;2024-02-16T09:26:03;78.90;;;44.63;;
39982;SDS011;25670;44.782;10.356;2024-02-16T09:28:29;74.25;;;43.20;;
39982;SDS011;25670;44.782;10.356;2024-02-16T09:30:56;70.45;;;42.75;;
39982;SDS011;25670;44.782;10.356;2024-02-16T09:33:23;78.18;;;42.83;;
39982;SDS011;25670;44.782;10.356;2024-02-16T09:35:52;78.40;;;45.15;;
39982;SDS011;25670;44.782;10.356;2024-02-16T09:38:19;81.50;;;45.78;;
39982;SDS011;25670;44.782;10.356;2024-02-16T09:40:45;79.75;;;45.65;;
39982;SDS011;25670;44.782;10.356;2024-02-16T09:43:25;73.60;;;44.38;;
39982;SDS011;25670;44.782;10.356;2024-02-16T09:45:56;75.80;;;45.70;;
39982;SDS011;25670;44.782;10.356;2024-02-16T09:48:25;83.10;;;46.38;;
39982;SDS011;25670;44.782;10.356;2024-02-16T09:50:53;85.05;;;48.42;;
39982;SDS011;25670;44.782;10.356;2024-02-16T09:53:20;81.75;;;48.00;;
39982;SDS011;25670;44.782;10.356;2024-02-16T09:55:50;85.05;;;47.97;;
39982;SDS011;25670;44.782;10.356;2024-02-16T09:58:17;83.28;;;46.08;;
39982;SDS011;25670;44.782;10.356;2024-02-16T10:00:48;84.45;;;49.33;;
39982;SDS011;25670;44.782;10.356;2024-02-16T10:03:21;78.60;;;46.95;;
39982;SDS011;25670;44.782;10.356;2024-02-16T10:05:52;80.78;;;46.83;;
39982;SDS011;25670;44.782;10.356;2024-02-16T10:08:29;95.50;;;52.20;;
39982;SDS011;25670;44.782;10.356;2024-02-16T10:11:04;90.43;;;55.17;;
39982;SDS011;25670;44.782;10.356;2024-02-16T10:13:33;94.05;;;54.53;;
39982;SDS011;25670;44.782;10.356;2024-02-16T10:16:06;91.65;;;52.22;;
39982;SDS011;25670;44.782;10.356;2024-02-16T10:18:35;90.70;;;51.97;;
39982;SDS011;25670;44.782;10.356;2024-02-16T10:21:03;86.38;;;53.95;;
39982;SDS011;25670;44.782;10.356;2024-02-16T10:23:30;85.00;;;50.95;;
39982;SDS011;25670;44.782;10.356;2024-02-16T10:25:57;92.88;;;52.65;;
39982;SDS011;25670;44.782;10.356;2024-02-16T10:28:24;88.72;;;53.30;;
39982;SDS011;25670;44.782;10.356;2024-02-16T10:30:58;87.60;;;51.90;;
39982;SDS011;25670;44.782;10.356;2024-02-16T10:33:30;88.18;;;50.65;;
39982;SDS011;25670;44.782;10.356;2024-02-16T10:35:58;89.20;;;51.22;;
39982;SDS011;25670;44.782;10.356;2024-02-16T10:38:25;89.18;;;52.03;;
39982;SDS011;25670;44.782;10.356;2024-02-16T10:40:53;99.57;;;52.80;;
39982;SDS011;25670;44.782;10.356;2024-02-16T10:43:21;89.05;;;51.90;;
39982;SDS011;25670;44.782;10.356;2024-02-16T10:45:49;87.15;;;51.95;;
39982;SDS011;25670;44.782;10.356;2024-02-16T10:48:18;89.85;;;52.67;;
39982;SDS011;25670;44.782;10.356;2024-02-16T10:50:44;85.47;;;52.92;;
39982;SDS011;25670;44.782;10.356;2024-02-16T10:53:29;84.53;;;51.60;;
39982;SDS011;25670;44.782;10.356;2024-02-16T10:55:58;83.88;;;51.20;;
39982;SDS011;25670;44.782;10.356;2024-02-16T10:58:26;88.72;;;52.20;;
39982;SDS011;25670;44.782;10.356;2024-02-16T11:00:55;95.57;;;53.08;;
39982;SDS011;25670;44.782;10.356;2024-02-16T11:03:23;91.65;;;51.15;;
39982;SDS011;25670;44.782;10.356;2024-02-16T11:05:50;90.93;;;52.15;;
39982;SDS011;25670;44.782;10.356;2024-02-16T11:08:17;99.07;;;56.28;;
39982;SDS011;25670;44.782;10.356;2024-02-16T11:13:25;94.60;;;54.30;;
39982;SDS011;25670;44.782;10.356;2024-02-16T11:18:29;101.75;;;56.22;;
39982;SDS011;25670;44.782;10.356;2024-02-16T11:20:59;98.07;;;55.15;;
39982;SDS011;25670;44.782;10.356;2024-02-16T11:23:28;94.78;;;55.00;;
39982;SDS011;25670;44.782;10.356;2024-02-16T11:26:04;97.00;;;55.85;;
39982;SDS011;25670;44.782;10.356;2024-02-16T11:31:03;92.55;;;54.10;;
39982;SDS011;25670;44.782;10.356;2024-02-16T11:33:30;103.72;;;55.05;;
39982;SDS011;25670;44.782;10.356;2024-02-16T11:35:57;95.70;;;53.92;;
39982;SDS011;25670;44.782;10.356;2024-02-16T11:38:25;94.47;;;55.22;;
39982;SDS011;25670;44.782;10.356;2024-02-16T11:40:52;100.18;;;56.90;;
39982;SDS011;25670;44.782;10.356;2024-02-16T11:43:26;102.93;;;57.00;;
39982;SDS011;25670;44.782;10.356;2024-02-16T11:45:52;96.20;;;55.35;;
39982;SDS011;25670;44.782;10.356;2024-02-16T11:48:22;102.03;;;55.80;;
39982;SDS011;25670;44.782;10.356;2024-02-16T11:51:01;102.85;;;56.38;;
39982;SDS011;25670;44.782;10.356;2024-02-16T11:53:29;88.57;;;53.95;;
39982;SDS011;25670;44.782;10.356;2024-02-16T11:55:56;94.63;;;56.47;;
39982;SDS011;25670;44.782;10.356;2024-02-16T11:58:23;96.05;;;55.92;;
39982;SDS011;25670;44.782;10.356;2024-02-16T12:00:50;101.25;;;56.78;;
39982;SDS011;25670;44.782;10.356;2024-02-16T12:03:23;93.05;;;56.53;;
39982;SDS011;25670;44.782;10.356;2024-02-16T12:05:55;93.40;;;55.95;;
39982;SDS011;25670;44.782;10.356;2024-02-16T12:08:23;97.55;;;60.92;;
39982;SDS011;25670;44.782;10.356;2024-02-16T12:10:57;99.20;;;59.70;;
39982;SDS011;25670;44.782;10.356;2024-02-16T12:13:23;101.13;;;61.47;;
39982;SDS011;25670;44.782;10.356;2024-02-16T12:15:50;100.03;;;58.83;;
39982;SDS011;25670;44.782;10.356;2024-02-16T12:18:21;106.40;;;62.42;;
39982;SDS011;25670;44.782;10.356;2024-02-16T12:21:01;112.78;;;58.67;;
39982;SDS011;25670;44.782;10.356;2024-02-16T12:23:29;107.57;;;61.53;;
39982;SDS011;25670;44.782;10.356;2024-02-16T12:26:00;103.78;;;60.83;;
39982;SDS011;25670;44.782;10.356;2024-02-16T12:28:28;103.32;;;63.45;;
39982;SDS011;25670;44.782;10.356;2024-02-16T12:30:58;99.85;;;61.13;;
39982;SDS011;25670;44.782;10.356;2024-02-16T12:33:25;110.00;;;60.10;;
39982;SDS011;25670;44.782;10.356;2024-02-16T12:35:52;103.60;;;61.88;;
39982;SDS011;25670;44.782;10.356;2024-02-16T12:38:19;108.68;;;61.60;;
39982;SDS011;25670;44.782;10.356;2024-02-16T12:40:46;100.93;;;60.78;;
39982;SDS011;25670;44.782;10.356;2024-02-16T12:43:12;98.72;;;58.63;;
39982;SDS011;25670;44.782;10.356;2024-02-16T12:45:39;104.32;;;60.95;;
39982;SDS011;25670;44.782;10.356;2024-02-16T12:48:06;95.55;;;57.47;;
39982;SDS011;25670;44.782;10.356;2024-02-16T12:50:35;102.68;;;59.50;;
39982;SDS011;25670;44.782;10.356;2024-02-16T12:53:04;100.72;;;60.30;;
39982;SDS011;25670;44.782;10.356;2024-02-16T12:55:31;98.38;;;58.35;;
39982;SDS011;25670;44.782;10.356;2024-02-16T12:57:57;93.35;;;60.40;;
39982;SDS011;25670;44.782;10.356;2024-02-16T13:00:23;98.25;;;59.88;;
39982;SDS011;25670;44.782;10.356;2024-02-16T13:02:49;97.03;;;60.05;;
39982;SDS011;25670;44.782;10.356;2024-02-16T13:05:16;90.38;;;58.90;;
39982;SDS011;25670;44.782;10.356;2024-02-16T13:07:42;101.72;;;62.33;;
39982;SDS011;25670;44.782;10.356;2024-02-16T13:10:08;89.40;;;57.03;;
39982;SDS011;25670;44.782;10.356;2024-02-16T13:12:35;94.90;;;59.85;;
39982;SDS011;25670;44.782;10.356;2024-02-16T13:15:03;98.00;;;61.60;;
39982;SDS011;25670;44.782;10.356;2024-02-16T13:17:30;94.72;;;56.63;;
39982;SDS011;25670;44.782;10.356;2024-02-16T13:19:58;96.40;;;60.72;;
39982;SDS011;25670;44.782;10.356;2024-02-16T13:22:33;93.32;;;56.75;;
39982;SDS011;25670;44.782;10.356;2024-02-16T13:24:59;95.68;;;58.88;;
39982;SDS011;25670;44.782;10.356;2024-02-16T13:27:26;87.00;;;54.60;;
39982;SDS011;25670;44.782;10.356;2024-02-16T13:29:52;89.18;;;54.08;;
39982;SDS011;25670;44.782;10.356;2024-02-16T13:32:19;97.07;;;56.92;;
39982;SDS011;25670;44.782;10.356;2024-02-16T13:34:45;93.28;;;57.83;;
39982;SDS011;25670;44.782;10.356;2024-02-16T13:37:11;96.32;;;61.10;;
39982;SDS011;25670;44.782;10.356;2024-02-16T13:39:39;92.38;;;58.75;;
39982;SDS011;25670;44.782;10.356;2024-02-16T13:42:06;97.93;;;63.35;;
39982;SDS011;25670;44.782;10.356;2024-02-16T13:44:32;97.63;;;60.17;;
39982;SDS011;25670;44.782;10.356;2024-02-16T13:46:59;97.22;;;61.97;;
39982;SDS011;25670;44.782;10.356;2024-02-16T13:49:25;98.60;;;58.47;;
39982;SDS011;25670;44.782;10.356;2024-02-16T13:51:55;94.03;;;60.65;;
39982;SDS011;25670;44.782;10.356;2024-02-16T13:54:24;101.45;;;61.22;;
39982;SDS011;25670;44.782;10.356;2024-02-16T13:56:51;95.28;;;59.10;;
39982;SDS011;25670;44.782;10.356;2024-02-16T13:59:18;98.30;;;59.63;;
39982;SDS011;25670;44.782;10.356;2024-02-16T14:01:45;87.47;;;55.53;;
39982;SDS011;25670;44.782;10.356;2024-02-16T14:04:13;92.70;;;59.38;;
39982;SDS011;25670;44.782;10.356;2024-02-16T14:06:40;88.90;;;57.08;;
39982;SDS011;25670;44.782;10.356;2024-02-16T14:09:06;97.38;;;59.38;;
39982;SDS011;25670;44.782;10.356;2024-02-16T14:11:37;102.18;;;62.10;;
39982;SDS011;25670;44.782;10.356;2024-02-16T14:14:03;99.10;;;62.13;;
39982;SDS011;25670;44.782;10.356;2024-02-16T14:16:30;97.75;;;60.70;;
39982;SDS011;25670;44.782;10.356;2024-02-16T14:18:56;96.18;;;59.47;;
39982;SDS011;25670;44.782;10.356;2024-02-16T14:21:22;112.00;;;64.28;;